createdAt,value
2022-12-16T00:03:29.077Z,158.60
2022-12-16T00:08:26.180Z,143.10
2022-12-16T00:13:25.388Z,206.80
2022-12-16T00:18:24.579Z,281.00
2022-12-16T00:23:23.746Z,250.90
2022-12-16T00:28:22.970Z,151.00
2022-12-16T00:33:22.202Z,179.00
2022-12-16T00:38:22.393Z,158.40
2022-12-16T00:43:20.610Z,153.00
2022-12-16T00:48:20.785Z,143.30
2022-12-16T00:53:18.977Z,135.90
2022-12-16T00:58:18.161Z,121.80
2022-12-16T01:03:21.871Z,117.70
2022-12-16T01:08:18.500Z,114.80
2022-12-16T01:13:16.662Z,107.10
2022-12-16T01:18:16.820Z,102.10
2022-12-16T01:23:14.996Z,97.40
2022-12-16T01:28:13.161Z,92.80
2022-12-16T01:33:13.324Z,88.50
2022-12-16T01:38:11.515Z,86.50
2022-12-16T01:43:11.707Z,79.20
2022-12-16T01:48:09.870Z,75.50
2022-12-16T01:53:09.030Z,73.00
2022-12-16T01:58:08.198Z,69.50
2022-12-16T02:03:07.438Z,64.30
2022-12-16T02:08:06.505Z,59.70
2022-12-16T02:13:05.766Z,59.50
2022-12-16T02:18:06.088Z,56.10
2022-12-16T02:23:04.403Z,56.50
2022-12-16T02:28:04.727Z,51.40
2022-12-16T02:33:04.048Z,50.10
2022-12-16T02:38:02.376Z,47.40
2022-12-16T02:43:01.486Z,44.20
2022-12-16T02:48:00.778Z,44.90
2022-12-16T02:53:01.097Z,41.80
2022-12-16T02:58:00.368Z,38.80
2022-12-16T03:02:59.735Z,37.70
2022-12-16T03:07:58.904Z,37.20
2022-12-16T03:12:58.191Z,36.60
2022-12-16T03:17:57.463Z,35.00
2022-12-16T03:22:55.739Z,32.70
2022-12-16T03:27:55.024Z,32.80
2022-12-16T03:32:54.322Z,30.80
2022-12-16T03:37:53.641Z,29.80
2022-12-16T03:42:52.979Z,28.50
2022-12-16T03:47:52.098Z,26.90
2022-12-16T03:52:51.420Z,26.30
2022-12-16T03:57:51.709Z,25.20
2022-12-16T04:02:51.235Z,23.60
2022-12-16T04:07:50.316Z,23.50
2022-12-16T04:12:48.601Z,22.40
2022-12-16T04:17:47.882Z,22.40
2022-12-16T04:22:47.153Z,20.50
2022-12-16T04:27:46.426Z,19.80
2022-12-16T04:32:45.700Z,19.50
2022-12-16T04:37:44.985Z,18.70
2022-12-16T04:42:44.308Z,17.50
2022-12-16T04:47:44.501Z,17.90
2022-12-16T04:52:42.769Z,16.80
2022-12-16T04:57:42.074Z,17.50
2022-12-16T05:02:41.459Z,16.80
2022-12-16T05:07:40.588Z,15.70
2022-12-16T05:12:39.900Z,15.10
2022-12-16T05:17:42.224Z,15.10
2022-12-16T05:22:38.544Z,14.90
2022-12-16T05:27:39.706Z,14.60
2022-12-16T05:32:36.804Z,13.90
2022-12-16T05:37:36.143Z,13.30
2022-12-16T05:42:35.501Z,13.60
2022-12-16T05:47:34.700Z,13.90
2022-12-16T05:52:34.866Z,11.80
2022-12-16T05:57:33.221Z,11.70
2022-12-16T06:02:32.417Z,12.00
2022-12-16T06:07:32.663Z,11.50
2022-12-16T06:12:30.955Z,11.10
2022-12-16T06:17:31.300Z,11.20
2022-12-16T06:22:29.417Z,11.10
2022-12-16T06:27:29.699Z,10.70
2022-12-16T06:32:28.018Z,10.50
2022-12-16T06:37:28.342Z,10.50
2022-12-16T06:42:26.652Z,9.90
2022-12-16T06:47:26.043Z,8.70
2022-12-16T06:52:26.162Z,9.30
2022-12-16T06:57:24.476Z,9.10
2022-12-16T07:02:25.872Z,9.60
2022-12-16T07:07:24.053Z,8.80
2022-12-16T07:12:23.157Z,8.20
2022-12-16T07:17:21.467Z,8.00
2022-12-16T07:22:20.791Z,8.00
2022-12-16T07:27:20.106Z,7.60
2022-12-16T07:32:20.448Z,8.10
2022-12-16T07:37:19.729Z,6.90
2022-12-16T07:42:18.190Z,6.70
2022-12-16T07:47:17.282Z,8.00
2022-12-16T07:52:17.921Z,7.10
2022-12-16T07:57:16.853Z,6.80
2022-12-16T08:02:15.220Z,6.60
2022-12-16T08:07:14.393Z,6.20
2022-12-16T08:12:13.722Z,6.20
2022-12-16T08:17:13.180Z,6.20
2022-12-16T08:22:12.364Z,6.00
2022-12-16T08:27:11.501Z,5.70
2022-12-16T08:32:10.663Z,5.00
2022-12-16T08:37:09.833Z,5.20
2022-12-16T08:42:09.979Z,4.90
2022-12-16T08:47:10.194Z,4.10
2022-12-16T08:52:08.326Z,4.70
2022-12-16T08:57:07.494Z,11.90
2022-12-16T09:02:05.688Z,12.50
2022-12-16T09:07:05.914Z,19.20
2022-12-16T09:12:05.270Z,18.80
2022-12-16T09:17:03.398Z,19.80
2022-12-16T09:22:03.541Z,95.20
2022-12-16T09:27:01.839Z,243.10
2022-12-16T09:32:00.115Z,202.00
2022-12-16T09:37:00.376Z,171.60
2022-12-16T09:41:59.661Z,123.10
2022-12-16T09:47:02.100Z,134.10
2022-12-16T09:51:58.145Z,121.10
2022-12-16T09:56:58.283Z,121.60
2022-12-16T10:01:56.774Z,286.90
2022-12-16T10:06:55.948Z,269.50
2022-12-16T10:11:54.116Z,331.40
2022-12-16T10:16:56.335Z,358.30
2022-12-16T10:21:53.454Z,319.40
2022-12-16T10:26:54.771Z,280.20
2022-12-16T10:31:52.142Z,261.00
2022-12-16T10:36:51.450Z,231.60
2022-12-16T10:41:50.568Z,203.40
2022-12-16T10:46:49.761Z,338.40
2022-12-16T10:51:48.853Z,342.90
2022-12-16T10:56:48.184Z,308.30
2022-12-16T11:01:47.582Z,283.50
2022-12-16T11:06:48.707Z,262.60
2022-12-16T11:11:45.895Z,244.90
2022-12-16T11:16:45.170Z,235.30
2022-12-16T11:21:44.418Z,219.20
2022-12-16T11:26:43.651Z,205.90
2022-12-16T11:31:42.892Z,200.20
2022-12-16T11:36:43.106Z,183.00
2022-12-16T11:41:41.302Z,170.10
2022-12-16T11:46:40.500Z,167.50
2022-12-16T11:51:39.752Z,162.00
2022-12-16T11:56:38.132Z,157.30
2022-12-16T12:01:44.796Z,137.80
2022-12-16T12:06:37.558Z,135.20
2022-12-16T12:11:38.917Z,125.80
2022-12-16T12:16:36.075Z,117.80
2022-12-16T12:21:35.241Z,115.90
2022-12-16T12:26:34.538Z,109.90
2022-12-16T12:31:34.881Z,106.80
2022-12-16T12:36:36.429Z,98.10
2022-12-16T12:41:32.201Z,91.90
2022-12-16T12:46:32.568Z,88.20
2022-12-16T12:51:30.677Z,83.90
2022-12-16T12:56:31.015Z,76.90
2022-12-16T13:01:30.453Z,73.10
2022-12-16T13:06:29.669Z,67.10
2022-12-16T13:11:34.693Z,64.30
2022-12-16T13:16:28.210Z,62.00
2022-12-16T13:21:26.340Z,60.50
2022-12-16T13:26:25.466Z,59.60
2022-12-16T13:31:25.892Z,56.40
2022-12-16T13:36:24.090Z,53.40
2022-12-16T13:41:23.387Z,50.90
2022-12-16T13:46:22.757Z,47.10
2022-12-16T13:51:21.854Z,45.90
2022-12-16T13:56:21.157Z,43.00
2022-12-16T14:01:20.567Z,40.70
2022-12-16T14:06:19.708Z,39.20
2022-12-16T14:11:19.011Z,36.20
2022-12-16T14:16:23.530Z,33.10
2022-12-16T14:21:17.601Z,32.50
2022-12-16T14:26:16.929Z,32.00
2022-12-16T14:31:17.266Z,31.80
2022-12-16T14:36:15.557Z,30.50
2022-12-16T14:41:15.832Z,27.50
2022-12-16T14:46:14.200Z,27.10
2022-12-16T14:51:14.383Z,25.10
2022-12-16T14:56:12.484Z,24.00
2022-12-16T15:01:15.731Z,21.70
2022-12-16T15:06:10.938Z,21.80
2022-12-16T15:11:11.257Z,20.30
2022-12-16T15:16:10.624Z,20.30
2022-12-16T15:21:09.752Z,20.50
2022-12-16T15:26:08.095Z,18.80
2022-12-16T15:31:07.321Z,17.90
2022-12-16T15:36:06.546Z,16.50
2022-12-16T15:41:05.659Z,15.90
2022-12-16T15:46:04.005Z,15.60
2022-12-16T15:51:04.293Z,13.90
2022-12-16T15:56:05.474Z,13.40
2022-12-16T16:01:03.846Z,13.70
2022-12-16T16:06:02.968Z,12.60
2022-12-16T16:11:01.262Z,12.00
2022-12-16T16:16:00.634Z,11.50
2022-12-16T16:21:00.723Z,10.60
2022-12-16T16:26:03.774Z,11.10
2022-12-16T16:30:58.287Z,9.90
2022-12-16T16:35:57.612Z,9.80
2022-12-16T16:40:56.968Z,10.00
2022-12-16T16:45:56.084Z,9.60
2022-12-16T16:50:55.385Z,9.40
2022-12-16T16:55:55.702Z,8.50
2022-12-16T17:00:54.098Z,8.70
2022-12-16T17:05:53.272Z,8.60
2022-12-16T17:10:52.568Z,8.60
2022-12-16T17:15:52.903Z,7.90
2022-12-16T17:20:51.138Z,7.30
2022-12-16T17:25:52.466Z,7.10
2022-12-16T17:30:49.764Z,8.10
2022-12-16T17:35:49.076Z,8.00
2022-12-16T17:40:48.389Z,7.80
2022-12-16T17:45:48.796Z,6.80
2022-12-16T17:50:47.903Z,7.60
2022-12-16T17:55:48.201Z,7.50
2022-12-16T18:00:45.538Z,7.30
2022-12-16T18:05:45.117Z,8.20
2022-12-16T18:10:43.940Z,8.50
2022-12-16T18:15:44.551Z,8.00
2022-12-16T18:20:43.500Z,8.30
2022-12-16T18:25:42.804Z,8.60
2022-12-16T18:30:41.122Z,7.80
2022-12-16T18:35:40.447Z,7.60
2022-12-16T18:40:38.788Z,7.30
2022-12-16T18:45:39.121Z,6.70
2022-12-16T18:50:40.582Z,7.30
2022-12-16T18:55:38.590Z,6.60
2022-12-16T19:00:37.140Z,6.70
2022-12-16T19:05:35.939Z,6.00
2022-12-16T19:10:35.430Z,6.10
2022-12-16T19:15:40.896Z,7.00
2022-12-16T19:20:35.485Z,21.20
2022-12-16T19:25:33.122Z,154.60
2022-12-16T19:30:33.311Z,186.00
2022-12-16T19:35:31.474Z,163.60
2022-12-16T19:40:30.654Z,316.70
2022-12-16T19:45:30.198Z,279.70
2022-12-16T19:50:29.077Z,242.00
2022-12-16T19:55:30.406Z,206.60
2022-12-16T20:00:27.935Z,184.70
2022-12-16T20:05:27.143Z,160.50
2022-12-16T20:10:26.384Z,231.70
2022-12-16T20:15:26.367Z,262.40
2022-12-16T20:20:25.494Z,326.50
2022-12-16T20:25:24.128Z,315.10
2022-12-16T20:30:24.472Z,274.10
2022-12-16T20:35:22.281Z,263.30
2022-12-16T20:40:20.622Z,341.50
2022-12-16T20:45:20.893Z,329.20
2022-12-16T20:50:23.663Z,289.70
2022-12-16T20:55:20.373Z,255.30
2022-12-16T21:00:18.965Z,345.00
2022-12-16T21:05:20.057Z,322.00
2022-12-16T21:10:18.130Z,283.80
2022-12-16T21:15:20.759Z,249.60
2022-12-16T21:20:15.755Z,223.80
2022-12-16T21:25:16.731Z,194.20
2022-12-16T21:30:14.136Z,240.80
2022-12-16T21:35:13.223Z,313.20
2022-12-16T21:40:12.357Z,270.50
2022-12-16T21:45:11.517Z,242.60
2022-12-16T21:50:10.651Z,297.20
2022-12-16T21:55:10.913Z,340.30
2022-12-16T22:00:11.231Z,292.60
2022-12-16T22:05:08.573Z,261.10
2022-12-16T22:10:08.811Z,244.60
2022-12-16T22:15:09.960Z,217.80
2022-12-16T22:20:06.249Z,193.10
2022-12-16T22:25:10.977Z,162.90
2022-12-16T22:30:06.737Z,149.00
2022-12-16T22:35:04.031Z,137.50
2022-12-16T22:40:04.329Z,127.40
2022-12-16T22:45:03.625Z,116.90
2022-12-16T22:50:02.944Z,189.20
2022-12-16T22:55:01.150Z,290.00
2022-12-16T23:00:00.357Z,266.60
2022-12-16T23:04:58.574Z,326.60
2022-12-16T23:10:17.785Z,305.70
2022-12-16T23:15:01.048Z,364.80
2022-12-16T23:19:58.205Z,324.20
2022-12-16T23:24:57.390Z,300.30
2022-12-16T23:29:56.574Z,357.90
2022-12-16T23:34:56.869Z,351.20
2022-12-16T23:39:55.042Z,307.00
2022-12-16T23:44:56.306Z,357.60
2022-12-16T23:49:52.566Z,368.40
2022-12-16T23:54:51.862Z,336.20
2022-12-16T23:59:51.031Z,311.10
